createdAt,value
2019-03-29T00:01:12.720Z,5.97
2019-03-29T00:03:42.423Z,6.20
2019-03-29T00:06:12.221Z,6.37
2019-03-29T00:08:41.955Z,6.07
2019-03-29T00:11:12.991Z,5.57
2019-03-29T00:13:43.007Z,6.50
2019-03-29T00:16:12.708Z,6.30
2019-03-29T00:18:42.449Z,5.60
2019-03-29T00:21:13.011Z,6.17
2019-03-29T00:23:42.838Z,6.37
2019-03-29T00:26:12.573Z,5.70
2019-03-29T00:28:42.269Z,6.40
2019-03-29T00:31:12.010Z,7.70
2019-03-29T00:33:41.704Z,7.57
2019-03-29T00:36:11.548Z,7.93
2019-03-29T00:38:41.356Z,7.97
2019-03-29T00:41:11.250Z,7.60
2019-03-29T00:43:40.901Z,8.37
2019-03-29T00:46:11.359Z,9.00
2019-03-29T00:48:41.794Z,8.97
2019-03-29T00:51:11.535Z,9.77
2019-03-29T00:53:41.305Z,8.70
2019-03-29T00:56:10.985Z,7.67
2019-03-29T00:58:40.755Z,9.80
2019-03-29T01:01:10.651Z,8.80
2019-03-29T01:03:40.398Z,8.90
2019-03-29T01:06:10.088Z,9.90
2019-03-29T01:08:40.857Z,9.30
2019-03-29T01:11:10.485Z,9.50
2019-03-29T01:13:40.301Z,10.20
2019-03-29T01:16:10.145Z,9.77
2019-03-29T01:18:39.894Z,11.53
2019-03-29T01:21:09.538Z,10.73
2019-03-29T01:23:39.276Z,12.30
2019-03-29T01:26:08.916Z,11.80
2019-03-29T01:28:38.717Z,12.13
2019-03-29T01:31:08.665Z,10.77
2019-03-29T01:33:39.979Z,11.43
2019-03-29T01:36:09.689Z,11.33
2019-03-29T01:38:39.457Z,11.50
2019-03-29T01:41:09.273Z,12.63
2019-03-29T01:43:38.970Z,10.83
2019-03-29T01:46:08.835Z,10.73
2019-03-29T01:48:38.650Z,11.43
2019-03-29T01:51:08.368Z,11.37
2019-03-29T01:53:38.212Z,10.80
2019-03-29T01:56:08.136Z,9.80
2019-03-29T01:58:37.809Z,11.93
2019-03-29T02:01:07.518Z,10.63
2019-03-29T02:03:37.223Z,9.80
2019-03-29T02:06:06.976Z,10.63
2019-03-29T02:08:37.834Z,10.40
2019-03-29T02:11:08.455Z,9.23
2019-03-29T02:13:38.250Z,9.60
2019-03-29T02:16:08.186Z,10.37
2019-03-29T02:18:37.812Z,8.60
2019-03-29T02:21:07.557Z,10.47
2019-03-29T02:23:37.253Z,10.03
2019-03-29T02:26:07.058Z,10.30
2019-03-29T02:28:36.695Z,8.47
2019-03-29T02:31:06.442Z,8.17
2019-03-29T02:33:36.100Z,10.57
2019-03-29T02:36:08.611Z,8.63
2019-03-29T02:38:54.265Z,9.43
2019-03-29T02:41:09.509Z,9.40
2019-03-29T02:43:39.129Z,8.80
2019-03-29T02:46:08.802Z,9.20
2019-03-29T02:48:38.499Z,8.40
2019-03-29T02:51:08.337Z,9.30
2019-03-29T02:53:38.022Z,10.40
2019-03-29T02:56:07.755Z,10.43
2019-03-29T02:58:37.482Z,9.97
2019-03-29T03:01:07.325Z,11.00
2019-03-29T03:03:37.057Z,10.13
2019-03-29T03:06:06.917Z,10.67
2019-03-29T03:08:36.623Z,11.20
2019-03-29T03:11:06.815Z,11.33
2019-03-29T03:13:36.574Z,12.63
2019-03-29T03:16:06.441Z,10.93
2019-03-29T03:18:36.245Z,10.50
2019-03-29T03:21:06.006Z,11.30
2019-03-29T03:23:35.760Z,10.70
2019-03-29T03:26:05.522Z,11.20
2019-03-29T03:28:35.195Z,11.50
2019-03-29T03:31:05.202Z,11.57
2019-03-29T03:33:34.952Z,11.53
2019-03-29T03:36:04.712Z,12.70
2019-03-29T03:38:34.426Z,11.43
2019-03-29T03:41:04.396Z,11.67
2019-03-29T03:43:34.303Z,11.40
2019-03-29T03:46:04.056Z,12.00
2019-03-29T03:48:33.803Z,10.67
2019-03-29T03:51:04.380Z,11.10
2019-03-29T03:53:34.790Z,11.50
2019-03-29T03:56:05.414Z,12.93
2019-03-29T03:58:35.343Z,10.30
2019-03-29T04:01:05.351Z,11.87
2019-03-29T04:03:35.177Z,12.13
2019-03-29T04:06:05.070Z,13.60
2019-03-29T04:08:34.783Z,10.57
2019-03-29T04:11:04.653Z,13.23
2019-03-29T04:13:34.642Z,11.13
2019-03-29T04:16:04.829Z,12.00
2019-03-29T04:18:34.621Z,12.80
2019-03-29T04:21:04.404Z,11.70
2019-03-29T04:23:34.252Z,12.77
2019-03-29T04:26:04.031Z,12.90
2019-03-29T04:28:33.763Z,12.67
2019-03-29T04:31:03.539Z,13.20
2019-03-29T04:33:33.172Z,12.87
2019-03-29T04:36:03.122Z,12.23
2019-03-29T04:38:32.816Z,12.90
2019-03-29T04:41:02.453Z,13.10
2019-03-29T04:43:32.214Z,13.37
2019-03-29T04:46:01.909Z,13.63
2019-03-29T04:48:31.582Z,13.17
2019-03-29T04:51:01.340Z,13.43
2019-03-29T04:53:31.039Z,12.57
2019-03-29T04:56:00.665Z,13.20
2019-03-29T04:58:30.408Z,14.10
2019-03-29T05:01:00.174Z,13.57
2019-03-29T05:03:29.945Z,13.00
2019-03-29T05:05:59.760Z,14.00
2019-03-29T05:08:29.448Z,14.20
2019-03-29T05:10:59.292Z,14.03
2019-03-29T05:13:28.924Z,14.03
2019-03-29T05:15:58.664Z,15.40
2019-03-29T05:18:28.500Z,13.27
2019-03-29T05:20:58.269Z,13.70
2019-03-29T05:23:27.904Z,13.70
2019-03-29T05:25:57.719Z,13.93
2019-03-29T05:28:27.360Z,14.33
2019-03-29T05:30:57.104Z,14.50
2019-03-29T05:33:27.016Z,13.60
2019-03-29T05:35:56.766Z,15.33
2019-03-29T05:38:26.497Z,14.97
2019-03-29T05:40:56.265Z,13.90
2019-03-29T05:43:26.062Z,14.30
2019-03-29T05:45:55.761Z,14.17
2019-03-29T05:48:25.434Z,14.50
2019-03-29T05:50:55.139Z,20.30
2019-03-29T05:53:24.903Z,18.33
2019-03-29T05:55:54.693Z,19.10
2019-03-29T05:58:24.475Z,27.70
2019-03-29T06:00:54.179Z,23.40
2019-03-29T06:03:23.932Z,27.20
2019-03-29T06:05:53.618Z,26.37
2019-03-29T06:08:23.444Z,27.00
2019-03-29T06:10:53.089Z,27.33
2019-03-29T06:13:22.889Z,24.40
2019-03-29T06:15:52.663Z,24.10
2019-03-29T06:18:22.420Z,23.87
2019-03-29T06:20:52.119Z,25.00
2019-03-29T06:23:21.871Z,22.73
2019-03-29T06:25:51.569Z,22.43
2019-03-29T06:28:21.375Z,22.23
2019-03-29T06:30:51.142Z,20.57
2019-03-29T06:33:20.832Z,22.00
2019-03-29T06:35:52.071Z,21.50
2019-03-29T06:38:24.233Z,21.37
2019-03-29T06:41:02.815Z,23.00
2019-03-29T06:43:25.115Z,21.20
2019-03-29T06:45:54.924Z,21.70
2019-03-29T06:48:24.619Z,21.70
2019-03-29T06:50:56.683Z,20.83
2019-03-29T06:53:26.375Z,20.17
2019-03-29T06:55:59.207Z,21.97
2019-03-29T06:58:27.469Z,21.30
2019-03-29T07:00:57.215Z,20.03
2019-03-29T07:03:26.921Z,21.60
2019-03-29T07:05:56.587Z,20.07
2019-03-29T07:08:26.325Z,19.53
2019-03-29T07:10:56.004Z,21.20
2019-03-29T07:13:25.746Z,20.40
2019-03-29T07:15:55.475Z,22.30
2019-03-29T07:18:25.299Z,20.70
2019-03-29T07:20:55.068Z,21.03
2019-03-29T07:23:24.688Z,21.47
2019-03-29T07:25:56.349Z,19.17
2019-03-29T07:28:25.621Z,19.77
2019-03-29T07:30:55.325Z,22.40
2019-03-29T07:33:24.995Z,20.47
2019-03-29T07:35:54.749Z,21.73
2019-03-29T07:38:24.490Z,19.43
2019-03-29T07:40:54.403Z,19.80
2019-03-29T07:43:24.217Z,18.10
2019-03-29T07:45:54.027Z,19.10
2019-03-29T07:48:23.687Z,18.40
2019-03-29T07:50:53.389Z,20.23
2019-03-29T07:53:23.166Z,18.13
2019-03-29T07:55:52.907Z,20.20
2019-03-29T07:58:22.670Z,18.10
2019-03-29T08:00:52.338Z,19.83
2019-03-29T08:03:23.495Z,19.37
2019-03-29T08:05:53.634Z,19.80
2019-03-29T08:08:27.924Z,18.90
2019-03-29T08:10:54.586Z,18.00
2019-03-29T08:13:24.335Z,19.03
2019-03-29T08:15:54.054Z,18.60
2019-03-29T08:18:23.689Z,17.33
2019-03-29T08:20:53.381Z,17.30
2019-03-29T08:23:23.044Z,16.27
2019-03-29T08:25:52.762Z,19.47
2019-03-29T08:28:22.502Z,19.10
2019-03-29T08:30:52.221Z,17.10
2019-03-29T08:33:22.040Z,17.60
2019-03-29T08:35:51.819Z,17.50
2019-03-29T08:38:21.501Z,16.93
2019-03-29T08:40:51.287Z,18.20
2019-03-29T08:43:21.023Z,16.63
2019-03-29T08:45:50.717Z,19.03
2019-03-29T08:48:20.455Z,17.50
2019-03-29T08:50:50.163Z,18.40
2019-03-29T08:53:19.992Z,17.27
2019-03-29T08:55:49.781Z,17.53
2019-03-29T08:58:19.461Z,18.10
2019-03-29T09:00:49.374Z,21.23
2019-03-29T09:03:18.976Z,17.83
2019-03-29T09:05:49.417Z,20.20
2019-03-29T09:08:19.185Z,20.00
2019-03-29T09:10:48.956Z,21.47
2019-03-29T09:13:18.911Z,23.13
2019-03-29T09:15:48.678Z,23.03
2019-03-29T09:18:18.484Z,23.60
2019-03-29T09:20:48.301Z,22.50
2019-03-29T09:23:18.008Z,23.80
2019-03-29T09:25:47.681Z,23.33
2019-03-29T09:28:17.465Z,23.37
2019-03-29T09:30:47.285Z,22.73
2019-03-29T09:33:17.026Z,23.67
2019-03-29T09:35:46.791Z,25.57
2019-03-29T09:38:17.177Z,25.03
2019-03-29T09:40:57.768Z,24.17
2019-03-29T09:43:18.279Z,25.33
2019-03-29T09:45:48.303Z,24.93
2019-03-29T09:48:18.058Z,26.13
2019-03-29T09:50:50.793Z,27.03
2019-03-29T09:53:19.182Z,26.23
2019-03-29T09:55:49.047Z,27.40
2019-03-29T09:58:18.723Z,29.63
2019-03-29T10:00:49.098Z,29.47
2019-03-29T10:03:18.953Z,32.13
2019-03-29T10:05:48.686Z,29.73
2019-03-29T10:08:18.395Z,33.63
2019-03-29T10:10:49.305Z,31.70
2019-03-29T10:13:19.015Z,30.73
2019-03-29T10:15:51.328Z,34.53
2019-03-29T10:18:20.264Z,33.43
2019-03-29T10:20:50.050Z,35.57
2019-03-29T10:23:19.724Z,36.00
2019-03-29T10:25:49.386Z,36.10
2019-03-29T10:28:19.161Z,35.67
2019-03-29T10:30:48.993Z,36.23
2019-03-29T10:33:18.802Z,41.50
2019-03-29T10:35:52.950Z,40.13
2019-03-29T10:38:19.894Z,40.47
2019-03-29T10:40:49.730Z,41.40
2019-03-29T10:43:19.466Z,39.73
2019-03-29T10:45:49.358Z,40.70
2019-03-29T10:48:19.161Z,39.70
2019-03-29T10:50:49.080Z,38.93
2019-03-29T10:53:18.742Z,43.20
2019-03-29T10:55:48.562Z,39.77
2019-03-29T10:58:18.402Z,42.27
2019-03-29T11:00:50.864Z,42.77
2019-03-29T11:03:20.544Z,40.57
2019-03-29T11:05:50.590Z,40.10
2019-03-29T11:08:20.468Z,38.17
2019-03-29T11:10:50.178Z,39.93
2019-03-29T11:13:20.020Z,41.83
2019-03-29T11:15:49.719Z,39.50
2019-03-29T11:18:19.823Z,35.60
2019-03-29T11:20:49.579Z,37.43
2019-03-29T11:23:19.368Z,38.70
2019-03-29T11:25:49.202Z,35.90
2019-03-29T11:28:19.018Z,34.07
2019-03-29T11:30:48.745Z,36.90
2019-03-29T11:33:18.574Z,35.93
2019-03-29T11:35:48.355Z,35.70
2019-03-29T11:38:18.148Z,37.20
2019-03-29T11:40:50.929Z,34.10
2019-03-29T11:43:26.638Z,36.00
2019-03-29T11:45:52.094Z,36.50
2019-03-29T11:48:21.885Z,35.43
2019-03-29T11:50:51.883Z,36.20
2019-03-29T11:53:21.814Z,38.10
2019-03-29T11:55:52.040Z,35.67
2019-03-29T11:58:21.931Z,37.33
2019-03-29T12:00:51.761Z,35.80
2019-03-29T12:03:21.603Z,37.17
2019-03-29T12:05:52.052Z,37.37
2019-03-29T12:08:21.735Z,35.67
2019-03-29T12:10:51.482Z,37.60
2019-03-29T12:13:21.191Z,34.97
2019-03-29T12:15:51.025Z,35.80
2019-03-29T12:18:20.946Z,36.27
2019-03-29T12:20:54.105Z,35.37
2019-03-29T12:23:22.124Z,36.10
2019-03-29T12:25:52.000Z,37.33
2019-03-29T12:28:21.763Z,35.03
2019-03-29T12:30:51.623Z,34.93
2019-03-29T12:33:21.357Z,34.77
2019-03-29T12:35:51.271Z,33.67
2019-03-29T12:38:21.068Z,34.77
2019-03-29T12:40:50.958Z,34.30
2019-03-29T12:43:20.776Z,34.33
2019-03-29T12:45:50.587Z,33.70
2019-03-29T12:48:20.533Z,30.47
2019-03-29T12:50:50.343Z,32.27
2019-03-29T12:53:20.175Z,32.80
2019-03-29T12:55:50.305Z,32.70
2019-03-29T12:58:20.171Z,30.47
2019-03-29T13:00:49.955Z,31.90
2019-03-29T13:03:19.905Z,32.20
2019-03-29T13:05:50.040Z,32.23
2019-03-29T13:08:19.846Z,29.67
2019-03-29T13:10:50.113Z,30.10
2019-03-29T13:13:20.018Z,28.43
2019-03-29T13:15:50.008Z,27.53
2019-03-29T13:18:19.862Z,29.10
2019-03-29T13:20:49.634Z,30.43
2019-03-29T13:23:19.338Z,30.10
2019-03-29T13:25:49.176Z,29.80
2019-03-29T13:28:19.165Z,26.77
2019-03-29T13:30:48.979Z,27.60
2019-03-29T13:33:20.561Z,27.20
2019-03-29T13:35:50.337Z,27.93
2019-03-29T13:38:20.672Z,27.37
2019-03-29T13:40:51.091Z,27.40
2019-03-29T13:43:21.026Z,26.73
2019-03-29T13:45:50.960Z,25.43
2019-03-29T13:48:20.738Z,23.17
2019-03-29T13:50:50.534Z,24.40
2019-03-29T13:53:20.254Z,26.03
2019-03-29T13:55:50.028Z,25.27
2019-03-29T13:58:21.420Z,25.47
2019-03-29T14:00:51.069Z,24.37
2019-03-29T14:03:20.933Z,23.87
2019-03-29T14:05:50.640Z,26.57
2019-03-29T14:08:29.502Z,27.13
2019-03-29T14:11:03.092Z,25.23
2019-03-29T14:13:33.630Z,26.27
2019-03-29T14:16:04.822Z,25.93
2019-03-29T14:18:35.771Z,23.10
2019-03-29T14:21:05.735Z,24.60
2019-03-29T14:23:35.520Z,25.80
2019-03-29T14:26:05.238Z,28.30
2019-03-29T14:28:35.072Z,24.90
2019-03-29T14:31:04.831Z,26.87
2019-03-29T14:33:34.578Z,26.73
2019-03-29T14:36:04.344Z,28.57
2019-03-29T14:38:34.414Z,29.40
2019-03-29T14:41:04.395Z,26.87
2019-03-29T14:43:34.120Z,28.57
2019-03-29T14:46:03.962Z,26.97
2019-03-29T14:48:33.600Z,25.57
2019-03-29T14:51:03.395Z,26.87
2019-03-29T14:53:36.148Z,25.87
2019-03-29T14:56:06.071Z,26.13
2019-03-29T14:58:35.816Z,26.50
2019-03-29T15:01:05.608Z,26.10
2019-03-29T15:03:35.751Z,25.20
2019-03-29T15:06:05.601Z,24.37
2019-03-29T15:08:35.562Z,24.20
2019-03-29T15:11:05.391Z,24.50
2019-03-29T15:13:35.127Z,22.97
2019-03-29T15:16:04.967Z,22.17
2019-03-29T15:18:34.668Z,24.67
2019-03-29T15:21:04.512Z,24.83
2019-03-29T15:23:34.287Z,24.90
2019-03-29T15:26:04.292Z,22.93
2019-03-29T15:28:37.255Z,22.90
2019-03-29T15:31:05.497Z,22.63
2019-03-29T15:33:35.213Z,25.03
2019-03-29T15:36:05.042Z,23.07
2019-03-29T15:38:35.231Z,20.70
2019-03-29T15:41:05.083Z,20.10
2019-03-29T15:43:34.929Z,21.50
2019-03-29T15:46:04.989Z,19.13
2019-03-29T15:48:34.746Z,20.93
2019-03-29T15:51:04.669Z,20.77
2019-03-29T15:53:34.308Z,19.57
2019-03-29T15:56:04.223Z,17.97
2019-03-29T15:58:34.207Z,16.73
2019-03-29T16:01:04.308Z,18.83
2019-03-29T16:03:34.072Z,17.70
2019-03-29T16:06:03.914Z,18.30
2019-03-29T16:08:33.742Z,16.90
2019-03-29T16:11:03.674Z,18.83
2019-03-29T16:13:33.470Z,15.77
2019-03-29T16:16:03.383Z,17.07
2019-03-29T16:18:33.082Z,15.60
2019-03-29T16:21:02.946Z,72.20
2019-03-29T16:23:32.772Z,83.27
2019-03-29T16:26:02.619Z,82.63
2019-03-29T16:28:32.430Z,55.77
2019-03-29T16:31:02.194Z,49.10
2019-03-29T16:33:31.977Z,47.33
2019-03-29T16:36:01.802Z,43.63
2019-03-29T16:38:31.609Z,51.43
2019-03-29T16:41:01.453Z,50.30
2019-03-29T16:43:31.195Z,41.43
2019-03-29T16:46:01.336Z,40.10
2019-03-29T16:48:31.183Z,37.20
2019-03-29T16:51:01.045Z,37.17
2019-03-29T16:53:30.782Z,36.37
2019-03-29T16:56:00.587Z,29.97
2019-03-29T16:58:30.415Z,31.60
2019-03-29T17:01:00.251Z,30.17
2019-03-29T17:03:30.043Z,27.67
2019-03-29T17:05:59.906Z,25.03
2019-03-29T17:08:29.762Z,22.10
2019-03-29T17:10:59.460Z,21.10
2019-03-29T17:13:29.187Z,24.13
2019-03-29T17:16:02.137Z,23.10
2019-03-29T17:18:30.386Z,25.43
2019-03-29T17:21:00.040Z,20.93
2019-03-29T17:23:30.195Z,20.90
2019-03-29T17:26:00.095Z,20.00
2019-03-29T17:28:29.944Z,20.70
2019-03-29T17:31:01.364Z,18.60
2019-03-29T17:33:31.193Z,16.03
2019-03-29T17:36:01.062Z,18.67
2019-03-29T17:38:30.878Z,15.47
2019-03-29T17:41:00.713Z,16.87
2019-03-29T17:43:30.443Z,16.40
2019-03-29T17:46:00.147Z,17.13
2019-03-29T17:48:30.063Z,15.47
2019-03-29T17:50:59.817Z,16.03
2019-03-29T17:53:29.654Z,14.07
2019-03-29T17:55:59.449Z,14.37
2019-03-29T17:58:29.325Z,14.17
2019-03-29T18:00:59.213Z,14.40
2019-03-29T18:03:28.996Z,14.10
2019-03-29T18:05:58.713Z,12.77
2019-03-29T18:08:28.553Z,13.20
2019-03-29T18:10:58.237Z,13.70
2019-03-29T18:13:28.055Z,14.10
2019-03-29T18:15:57.764Z,14.20
2019-03-29T18:18:27.662Z,12.40
2019-03-29T18:20:57.415Z,14.50
2019-03-29T18:23:27.102Z,12.83
2019-03-29T18:25:57.052Z,13.20
2019-03-29T18:28:26.955Z,14.73
2019-03-29T18:30:56.669Z,14.17
2019-03-29T18:33:27.278Z,15.00
2019-03-29T18:35:59.202Z,13.90
2019-03-29T18:38:30.377Z,12.37
2019-03-29T18:41:00.077Z,16.50
2019-03-29T18:43:29.864Z,13.00
2019-03-29T18:45:59.620Z,14.90
2019-03-29T18:48:29.404Z,13.90
2019-03-29T18:50:59.259Z,14.53
2019-03-29T18:53:28.969Z,14.43
2019-03-29T18:55:58.915Z,14.77
2019-03-29T18:58:28.675Z,15.30
2019-03-29T19:00:58.675Z,14.13
2019-03-29T19:03:28.770Z,13.90
2019-03-29T19:05:58.743Z,14.37
2019-03-29T19:08:28.657Z,13.30
2019-03-29T19:10:58.413Z,14.03
2019-03-29T19:13:28.181Z,14.87
2019-03-29T19:15:58.018Z,15.27
2019-03-29T19:18:27.732Z,15.17
2019-03-29T19:20:57.512Z,14.70
2019-03-29T19:23:27.375Z,14.40
2019-03-29T19:25:57.242Z,14.40
2019-03-29T19:28:29.782Z,16.20
2019-03-29T19:30:59.595Z,15.00
2019-03-29T19:33:29.378Z,15.53
2019-03-29T19:35:59.192Z,14.20
2019-03-29T19:38:29.074Z,14.43
2019-03-29T19:40:58.934Z,15.53
2019-03-29T19:43:28.896Z,15.73
2019-03-29T19:45:58.774Z,15.43
2019-03-29T19:48:28.634Z,16.80
2019-03-29T19:50:58.490Z,15.17
2019-03-29T19:53:28.268Z,13.70
2019-03-29T19:55:58.111Z,13.80
2019-03-29T19:58:27.888Z,14.93
2019-03-29T20:00:57.819Z,14.93
2019-03-29T20:03:27.547Z,16.77
2019-03-29T20:05:57.442Z,13.67
2019-03-29T20:08:27.390Z,14.13
2019-03-29T20:10:57.149Z,14.67
2019-03-29T20:13:27.056Z,14.37
2019-03-29T20:15:56.862Z,13.80
2019-03-29T20:18:26.620Z,13.97
2019-03-29T20:20:56.331Z,14.13
2019-03-29T20:23:26.153Z,14.47
2019-03-29T20:25:56.022Z,14.03
2019-03-29T20:28:25.849Z,13.97
2019-03-29T20:30:55.731Z,14.90
2019-03-29T20:33:25.545Z,15.40
2019-03-29T20:35:55.290Z,14.00
2019-03-29T20:38:27.479Z,13.90
2019-03-29T20:40:57.120Z,14.57
2019-03-29T20:43:27.015Z,13.23
2019-03-29T20:45:56.792Z,12.20
2019-03-29T20:48:26.773Z,13.27
2019-03-29T20:50:56.546Z,14.43
2019-03-29T20:53:26.398Z,13.97
2019-03-29T20:55:58.357Z,11.80
2019-03-29T20:58:27.670Z,13.60
2019-03-29T21:00:57.677Z,13.90
2019-03-29T21:03:27.398Z,11.83
2019-03-29T21:05:57.231Z,13.37
2019-03-29T21:08:26.938Z,13.07
2019-03-29T21:10:56.718Z,12.40
2019-03-29T21:13:26.456Z,11.47
2019-03-29T21:15:56.279Z,11.37
2019-03-29T21:18:26.277Z,12.40
2019-03-29T21:20:56.377Z,12.17
2019-03-29T21:23:26.151Z,11.43
2019-03-29T21:25:55.940Z,12.63
2019-03-29T21:28:25.697Z,11.87
2019-03-29T21:30:55.330Z,11.17
2019-03-29T21:33:25.024Z,11.50
2019-03-29T21:35:54.792Z,10.90
2019-03-29T21:38:25.777Z,9.77
2019-03-29T21:40:55.554Z,9.50
2019-03-29T21:43:25.397Z,12.13
2019-03-29T21:45:55.111Z,11.33
2019-03-29T21:48:29.030Z,10.23
2019-03-29T21:50:56.450Z,10.37
2019-03-29T21:53:26.460Z,8.80
2019-03-29T21:55:56.415Z,10.50
2019-03-29T21:58:26.253Z,8.83
2019-03-29T22:00:56.058Z,9.70
2019-03-29T22:03:25.979Z,9.90
2019-03-29T22:05:55.851Z,9.77
2019-03-29T22:08:25.748Z,9.03
2019-03-29T22:10:55.540Z,9.50
2019-03-29T22:13:25.260Z,9.93
2019-03-29T22:15:55.066Z,10.37
2019-03-29T22:18:37.422Z,8.93
2019-03-29T22:20:56.167Z,10.83
2019-03-29T22:23:26.080Z,9.20
2019-03-29T22:25:55.899Z,8.97
2019-03-29T22:28:25.779Z,8.73
2019-03-29T22:30:55.491Z,9.57
2019-03-29T22:33:25.190Z,8.07
2019-03-29T22:35:55.008Z,9.87
2019-03-29T22:38:24.778Z,9.50
2019-03-29T22:40:54.764Z,9.30
2019-03-29T22:43:24.536Z,9.30
2019-03-29T22:45:54.390Z,8.40
2019-03-29T22:48:24.202Z,9.77
2019-03-29T22:50:53.899Z,8.73
2019-03-29T22:53:23.616Z,9.50
2019-03-29T22:55:53.638Z,8.33
2019-03-29T22:58:23.663Z,9.37
2019-03-29T23:00:55.720Z,9.17
2019-03-29T23:03:25.738Z,11.17
2019-03-29T23:05:57.059Z,10.23
2019-03-29T23:08:27.627Z,9.40
2019-03-29T23:10:58.797Z,10.03
2019-03-29T23:13:28.891Z,10.60
2019-03-29T23:15:58.656Z,10.67
2019-03-29T23:18:28.401Z,10.03
2019-03-29T23:20:58.216Z,10.20
2019-03-29T23:23:27.898Z,9.80
2019-03-29T23:25:57.616Z,10.00
2019-03-29T23:28:27.408Z,10.23
2019-03-29T23:30:57.105Z,10.77
2019-03-29T23:33:26.924Z,11.13
2019-03-29T23:35:56.857Z,11.30
2019-03-29T23:38:26.655Z,11.90
2019-03-29T23:40:56.437Z,10.93
2019-03-29T23:43:26.458Z,10.73
2019-03-29T23:45:56.114Z,12.00
2019-03-29T23:48:25.879Z,11.47
2019-03-29T23:50:58.027Z,11.50
2019-03-29T23:53:27.364Z,10.90
2019-03-29T23:55:57.184Z,10.83
2019-03-29T23:58:26.950Z,10.23
